METAR Data
IDs: Format: Raw Decoded Include TAF

Data at: 2123 UTC 08 Aug 2020

METAR for:K6B9 (Skaneateles Arpt, NY, US)
Text:K6B9 082115Z AUTO VRB04KT 10SM CLR 27/18 A3012 RMK AO2
Temperature: 27.0°C ( 81°F)
Dewpoint: 18.0°C ( 64°F) [RH = 58%]
Pressure (altimeter):30.12 inches Hg (1020.1 mb)
Winds:variable direction winds at 5 MPH (4 knots; 2.1 m/s)
Visibility:10 or more sm (16+ km)
Ceiling:at least 12,000 feet AGL
Clouds:sky clear below 12,000 feet AGL
QC Flag:automated observation with no human augmentation
Text:K6B9 082055Z AUTO 22004KT 10SM SCT080 27/18 A3011 RMK AO2
Temperature: 27.0°C ( 81°F)
Dewpoint: 18.0°C ( 64°F) [RH = 58%]
Pressure (altimeter):30.11 inches Hg (1019.7 mb)
Winds:from the SW (220 degrees) at 5 MPH (4 knots; 2.1 m/s)
Visibility:10 or more sm (16+ km)
Ceiling:at least 12,000 feet AGL
Clouds: scattered clouds at 8000 feet AGL
QC Flag:automated observation with no human augmentation
Text:K6B9 082035Z AUTO 24005KT 10SM OVC085 26/19 A3012 RMK AO2
Temperature: 26.0°C ( 79°F)
Dewpoint: 19.0°C ( 66°F) [RH = 65%]
Pressure (altimeter):30.12 inches Hg (1020.1 mb)
Winds:from the WSW (240 degrees) at 6 MPH (5 knots; 2.6 m/s)
Visibility:10 or more sm (16+ km)
Ceiling:8500 feet AGL
Clouds: overcast cloud deck at 8500 feet AGL
QC Flag:automated observation with no human augmentation
Text:K6B9 082015Z AUTO VRB04KT 10SM OVC085 26/20 A3012 RMK AO2
Temperature: 26.0°C ( 79°F)
Dewpoint: 20.0°C ( 68°F) [RH = 70%]
Pressure (altimeter):30.12 inches Hg (1020.1 mb)
Winds:variable direction winds at 5 MPH (4 knots; 2.1 m/s)
Visibility:10 or more sm (16+ km)
Ceiling:8500 feet AGL
Clouds: overcast cloud deck at 8500 feet AGL
QC Flag:automated observation with no human augmentation
Text:K6B9 081955Z AUTO 25007KT 10SM FEW035 BKN090 26/19 A3013 RMK AO2
Temperature: 26.0°C ( 79°F)
Dewpoint: 19.0°C ( 66°F) [RH = 65%]
Pressure (altimeter):30.13 inches Hg (1020.4 mb)
Winds:from the WSW (250 degrees) at 8 MPH (7 knots; 3.6 m/s)
Visibility:10 or more sm (16+ km)
Ceiling:9000 feet AGL
Clouds: few clouds at 3500 feet AGL, broken clouds at 9000 feet AGL
QC Flag:automated observation with no human augmentation
Text:K6B9 081935Z AUTO 25005KT 10SM BKN090 26/19 A3014 RMK AO2
Temperature: 26.0°C ( 79°F)
Dewpoint: 19.0°C ( 66°F) [RH = 65%]
Pressure (altimeter):30.14 inches Hg (1020.7 mb)
Winds:from the WSW (250 degrees) at 6 MPH (5 knots; 2.6 m/s)
Visibility:10 or more sm (16+ km)
Ceiling:9000 feet AGL
Clouds: broken clouds at 9000 feet AGL
QC Flag:automated observation with no human augmentation
Text:K6B9 081915Z AUTO 25005KT 10SM FEW035 FEW044 BKN090 26/19 A3014 RMK AO2
Temperature: 26.0°C ( 79°F)
Dewpoint: 19.0°C ( 66°F) [RH = 65%]
Pressure (altimeter):30.14 inches Hg (1020.7 mb)
Winds:from the WSW (250 degrees) at 6 MPH (5 knots; 2.6 m/s)
Visibility:10 or more sm (16+ km)
Ceiling:9000 feet AGL
Clouds: few clouds at 3500 feet AGL, few clouds at 4400 feet AGL, broken clouds at 9000 feet AGL
QC Flag:automated observation with no human augmentation
Text:K6B9 081855Z AUTO VRB04KT 10SM FEW032 FEW043 27/19 A3015 RMK AO2
Temperature: 27.0°C ( 81°F)
Dewpoint: 19.0°C ( 66°F) [RH = 62%]
Pressure (altimeter):30.15 inches Hg (1021.1 mb)
Winds:variable direction winds at 5 MPH (4 knots; 2.1 m/s)
Visibility:10 or more sm (16+ km)
Ceiling:at least 12,000 feet AGL
Clouds: few clouds at 3200 feet AGL, few clouds at 4300 feet AGL
QC Flag:automated observation with no human augmentation
Text:K6B9 081835Z AUTO 23007KT 180V260 10SM FEW029 FEW041 FEW046 27/20 A3016 RMK AO2
Temperature: 27.0°C ( 81°F)
Dewpoint: 20.0°C ( 68°F) [RH = 66%]
Pressure (altimeter):30.16 inches Hg (1021.4 mb)
Winds:from the SW (230 degrees) at 8 MPH (7 knots; 3.6 m/s)
Visibility:10 or more sm (16+ km)
Ceiling:at least 12,000 feet AGL
Clouds: few clouds at 2900 feet AGL, few clouds at 4100 feet AGL, few clouds at 4600 feet AGL
QC Flag:automated observation with no human augmentation
Text:K6B9 081815Z AUTO 24006KT 10SM FEW029 SCT037 SCT044 26/20 A3016 RMK AO2
Temperature: 26.0°C ( 79°F)
Dewpoint: 20.0°C ( 68°F) [RH = 70%]
Pressure (altimeter):30.16 inches Hg (1021.4 mb)
Winds:from the WSW (240 degrees) at 7 MPH (6 knots; 3.1 m/s)
Visibility:10 or more sm (16+ km)
Ceiling:at least 12,000 feet AGL
Clouds: few clouds at 2900 feet AGL, scattered clouds at 3700 feet AGL, scattered clouds at 4400 feet AGL
QC Flag:automated observation with no human augmentation
Text:K6B9 081755Z AUTO VRB04KT 10SM FEW033 FEW043 26/19 A3016 RMK AO2
Temperature: 26.0°C ( 79°F)
Dewpoint: 19.0°C ( 66°F) [RH = 65%]
Pressure (altimeter):30.16 inches Hg (1021.4 mb)
Winds:variable direction winds at 5 MPH (4 knots; 2.1 m/s)
Visibility:10 or more sm (16+ km)
Ceiling:at least 12,000 feet AGL
Clouds: few clouds at 3300 feet AGL, few clouds at 4300 feet AGL
QC Flag:automated observation with no human augmentation
Text:K6B9 081735Z AUTO 22006KT 10SM FEW029 FEW038 26/19 A3017 RMK AO2
Temperature: 26.0°C ( 79°F)
Dewpoint: 19.0°C ( 66°F) [RH = 65%]
Pressure (altimeter):30.17 inches Hg (1021.8 mb)
Winds:from the SW (220 degrees) at 7 MPH (6 knots; 3.1 m/s)
Visibility:10 or more sm (16+ km)
Ceiling:at least 12,000 feet AGL
Clouds: few clouds at 2900 feet AGL, few clouds at 3800 feet AGL
QC Flag:automated observation with no human augmentation
Text:K6B9 081715Z AUTO VRB03KT 10SM FEW029 FEW040 26/19 A3017 RMK AO2
Temperature: 26.0°C ( 79°F)
Dewpoint: 19.0°C ( 66°F) [RH = 65%]
Pressure (altimeter):30.17 inches Hg (1021.8 mb)
Winds:variable direction winds at 3 MPH (3 knots; 1.5 m/s)
Visibility:10 or more sm (16+ km)
Ceiling:at least 12,000 feet AGL
Clouds: few clouds at 2900 feet AGL, few clouds at 4000 feet AGL
QC Flag:automated observation with no human augmentation
Text:K6B9 081655Z AUTO 24006KT 10SM SCT026 SCT033 SCT045 26/20 A3018 RMK AO2
Temperature: 26.0°C ( 79°F)
Dewpoint: 20.0°C ( 68°F) [RH = 70%]
Pressure (altimeter):30.18 inches Hg (1022.1 mb)
Winds:from the WSW (240 degrees) at 7 MPH (6 knots; 3.1 m/s)
Visibility:10 or more sm (16+ km)
Ceiling:at least 12,000 feet AGL
Clouds: scattered clouds at 2600 feet AGL, scattered clouds at 3300 feet AGL, scattered clouds at 4500 feet AGL
QC Flag:automated observation with no human augmentation
Text:K6B9 081635Z AUTO VRB06KT 10SM FEW025 SCT035 SCT070 25/20 A3018 RMK AO2
Temperature: 25.0°C ( 77°F)
Dewpoint: 20.0°C ( 68°F) [RH = 74%]
Pressure (altimeter):30.18 inches Hg (1022.1 mb)
Winds:variable direction winds at 7 MPH (6 knots; 3.1 m/s)
Visibility:10 or more sm (16+ km)
Ceiling:at least 12,000 feet AGL
Clouds: few clouds at 2500 feet AGL, scattered clouds at 3500 feet AGL, scattered clouds at 7000 feet AGL
QC Flag:automated observation with no human augmentation
Text:K6B9 081615Z AUTO 00000KT 10SM SCT023 SCT029 SCT037 25/20 A3018 RMK AO2
Temperature: 25.0°C ( 77°F)
Dewpoint: 20.0°C ( 68°F) [RH = 74%]
Pressure (altimeter):30.18 inches Hg (1022.1 mb)
Winds:calm
Visibility:10 or more sm (16+ km)
Ceiling:at least 12,000 feet AGL
Clouds: scattered clouds at 2300 feet AGL, scattered clouds at 2900 feet AGL, scattered clouds at 3700 feet AGL
QC Flag:automated observation with no human augmentation
Text:K6B9 081555Z AUTO VRB04KT 10SM FEW022 FEW037 25/20 A3018 RMK AO2
Temperature: 25.0°C ( 77°F)
Dewpoint: 20.0°C ( 68°F) [RH = 74%]
Pressure (altimeter):30.18 inches Hg (1022.1 mb)
Winds:variable direction winds at 5 MPH (4 knots; 2.1 m/s)
Visibility:10 or more sm (16+ km)
Ceiling:at least 12,000 feet AGL
Clouds: few clouds at 2200 feet AGL, few clouds at 3700 feet AGL
QC Flag:automated observation with no human augmentation
Text:K6B9 081535Z AUTO 00000KT 10SM SCT020 24/20 A3018 RMK AO2
Temperature: 24.0°C ( 75°F)
Dewpoint: 20.0°C ( 68°F) [RH = 78%]
Pressure (altimeter):30.18 inches Hg (1022.1 mb)
Winds:calm
Visibility:10 or more sm (16+ km)
Ceiling:at least 12,000 feet AGL
Clouds: scattered clouds at 2000 feet AGL
QC Flag:automated observation with no human augmentation
Text:K6B9 081515Z AUTO 00000KT 10SM BKN019 24/19 A3018 RMK AO2
Temperature: 24.0°C ( 75°F)
Dewpoint: 19.0°C ( 66°F) [RH = 74%]
Pressure (altimeter):30.18 inches Hg (1022.1 mb)
Winds:calm
Visibility:10 or more sm (16+ km)
Ceiling:1900 feet AGL
Clouds: broken clouds at 1900 feet AGL
QC Flag:automated observation with no human augmentation
Text:K6B9 081455Z AUTO 22004KT 10SM SCT021 23/19 A3019 RMK AO2
Temperature: 23.0°C ( 73°F)
Dewpoint: 19.0°C ( 66°F) [RH = 78%]
Pressure (altimeter):30.19 inches Hg (1022.4 mb)
Winds:from the SW (220 degrees) at 5 MPH (4 knots; 2.1 m/s)
Visibility:10 or more sm (16+ km)
Ceiling:at least 12,000 feet AGL
Clouds: scattered clouds at 2100 feet AGL
QC Flag:automated observation with no human augmentation
Text:K6B9 081435Z AUTO 00000KT 10SM SCT017 24/20 A3018 RMK AO2
Temperature: 24.0°C ( 75°F)
Dewpoint: 20.0°C ( 68°F) [RH = 78%]
Pressure (altimeter):30.18 inches Hg (1022.1 mb)
Winds:calm
Visibility:10 or more sm (16+ km)
Ceiling:at least 12,000 feet AGL
Clouds: scattered clouds at 1700 feet AGL
QC Flag:automated observation with no human augmentation
Text:K6B9 081415Z AUTO VRB04KT 10SM BKN016 23/20 A3019 RMK AO2
Temperature: 23.0°C ( 73°F)
Dewpoint: 20.0°C ( 68°F) [RH = 83%]
Pressure (altimeter):30.19 inches Hg (1022.4 mb)
Winds:variable direction winds at 5 MPH (4 knots; 2.1 m/s)
Visibility:10 or more sm (16+ km)
Ceiling:1600 feet AGL
Clouds: broken clouds at 1600 feet AGL
QC Flag:automated observation with no human augmentation
Text:K6B9 081355Z AUTO VRB04KT 10SM OVC015 23/20 A3019 RMK AO2
Temperature: 23.0°C ( 73°F)
Dewpoint: 20.0°C ( 68°F) [RH = 83%]
Pressure (altimeter):30.19 inches Hg (1022.4 mb)
Winds:variable direction winds at 5 MPH (4 knots; 2.1 m/s)
Visibility:10 or more sm (16+ km)
Ceiling:1500 feet AGL
Clouds: overcast cloud deck at 1500 feet AGL
QC Flag:automated observation with no human augmentation
Text:K6B9 081335Z AUTO VRB04KT 10SM BKN014 22/19 A3019 RMK AO2
Temperature: 22.0°C ( 72°F)
Dewpoint: 19.0°C ( 66°F) [RH = 83%]
Pressure (altimeter):30.19 inches Hg (1022.4 mb)
Winds:variable direction winds at 5 MPH (4 knots; 2.1 m/s)
Visibility:10 or more sm (16+ km)
Ceiling:1400 feet AGL
Clouds: broken clouds at 1400 feet AGL
QC Flag:automated observation with no human augmentation
Text:K6B9 081315Z AUTO 00000KT 10SM OVC014 22/19 A3019 RMK AO2
Temperature: 22.0°C ( 72°F)
Dewpoint: 19.0°C ( 66°F) [RH = 83%]
Pressure (altimeter):30.19 inches Hg (1022.4 mb)
Winds:calm
Visibility:10 or more sm (16+ km)
Ceiling:1400 feet AGL
Clouds: overcast cloud deck at 1400 feet AGL
QC Flag:automated observation with no human augmentation
Text:K6B9 081255Z AUTO VRB04KT 10SM BKN014 22/19 A3019 RMK AO2
Temperature: 22.0°C ( 72°F)
Dewpoint: 19.0°C ( 66°F) [RH = 83%]
Pressure (altimeter):30.19 inches Hg (1022.4 mb)
Winds:variable direction winds at 5 MPH (4 knots; 2.1 m/s)
Visibility:10 or more sm (16+ km)
Ceiling:1400 feet AGL
Clouds: broken clouds at 1400 feet AGL
QC Flag:automated observation with no human augmentation
Text:K6B9 081235Z AUTO VRB03KT 10SM SCT014 BKN032 21/19 A3019 RMK AO2
Temperature: 21.0°C ( 70°F)
Dewpoint: 19.0°C ( 66°F) [RH = 88%]
Pressure (altimeter):30.19 inches Hg (1022.4 mb)
Winds:variable direction winds at 3 MPH (3 knots; 1.5 m/s)
Visibility:10 or more sm (16+ km)
Ceiling:3200 feet AGL
Clouds: scattered clouds at 1400 feet AGL, broken clouds at 3200 feet AGL
QC Flag:automated observation with no human augmentation
Text:K6B9 081215Z AUTO 22005KT 10SM FEW032 21/19 A3019 RMK AO2
Temperature: 21.0°C ( 70°F)
Dewpoint: 19.0°C ( 66°F) [RH = 88%]
Pressure (altimeter):30.19 inches Hg (1022.4 mb)
Winds:from the SW (220 degrees) at 6 MPH (5 knots; 2.6 m/s)
Visibility:10 or more sm (16+ km)
Ceiling:at least 12,000 feet AGL
Clouds: few clouds at 3200 feet AGL
QC Flag:automated observation with no human augmentation
Text:K6B9 081155Z AUTO 24003KT 10SM CLR 20/19 A3018 RMK AO2
Temperature: 20.0°C ( 68°F)
Dewpoint: 19.0°C ( 66°F) [RH = 94%]
Pressure (altimeter):30.18 inches Hg (1022.1 mb)
Winds:from the WSW (240 degrees) at 3 MPH (3 knots; 1.5 m/s)
Visibility:10 or more sm (16+ km)
Ceiling:at least 12,000 feet AGL
Clouds:sky clear below 12,000 feet AGL
QC Flag:automated observation with no human augmentation
Text:K6B9 081135Z AUTO 00000KT 10SM CLR 20/20 A3018 RMK AO2
Temperature: 20.0°C ( 68°F)
Dewpoint: 20.0°C ( 68°F) [RH = 100%]
Pressure (altimeter):30.18 inches Hg (1022.1 mb)
Winds:calm
Visibility:10 or more sm (16+ km)
Ceiling:at least 12,000 feet AGL
Clouds:sky clear below 12,000 feet AGL
QC Flag:automated observation with no human augmentation
Text:K6B9 081115Z AUTO 00000KT 6SM BR CLR 18/18 A3017 RMK AO2
Temperature: 18.0°C ( 64°F)
Dewpoint: 18.0°C ( 64°F) [RH = 100%]
Pressure (altimeter):30.17 inches Hg (1021.8 mb)
Winds:calm
Visibility: 6 sm ( 10 km)
Ceiling:at least 12,000 feet AGL
Clouds:sky clear below 12,000 feet AGL
Weather:BR (mist)
QC Flag:automated observation with no human augmentation
Text:K6B9 081055Z AUTO 00000KT 5SM BR FEW095 18/18 A3017 RMK AO2
Temperature: 18.0°C ( 64°F)
Dewpoint: 18.0°C ( 64°F) [RH = 100%]
Pressure (altimeter):30.17 inches Hg (1021.8 mb)
Winds:calm
Visibility: 5 sm ( 8 km)
Ceiling:at least 12,000 feet AGL
Clouds: few clouds at 9500 feet AGL
Weather:BR (mist)
QC Flag:automated observation with no human augmentation
Text:K6B9 081035Z AUTO 00000KT 8SM BKN095 18/18 A3016 RMK AO2
Temperature: 18.0°C ( 64°F)
Dewpoint: 18.0°C ( 64°F) [RH = 100%]
Pressure (altimeter):30.16 inches Hg (1021.4 mb)
Winds:calm
Visibility: 8 sm ( 13 km)
Ceiling:9500 feet AGL
Clouds: broken clouds at 9500 feet AGL
QC Flag:automated observation with no human augmentation
Text:K6B9 081015Z AUTO 00000KT 6SM BR OVC095 18/18 A3016 RMK AO2
Temperature: 18.0°C ( 64°F)
Dewpoint: 18.0°C ( 64°F) [RH = 100%]
Pressure (altimeter):30.16 inches Hg (1021.4 mb)
Winds:calm
Visibility: 6 sm ( 10 km)
Ceiling:9500 feet AGL
Clouds: overcast cloud deck at 9500 feet AGL
Weather:BR (mist)
QC Flag:automated observation with no human augmentation
Text:K6B9 080955Z AUTO 00000KT 10SM FEW041 OVC100 18/18 A3016 RMK AO2
Temperature: 18.0°C ( 64°F)
Dewpoint: 18.0°C ( 64°F) [RH = 100%]
Pressure (altimeter):30.16 inches Hg (1021.4 mb)
Winds:calm
Visibility:10 or more sm (16+ km)
Ceiling:10000 feet AGL
Clouds: few clouds at 4100 feet AGL, overcast cloud deck at 10000 feet AGL
QC Flag:automated observation with no human augmentation
Text:K6B9 080935Z AUTO 00000KT 10SM OVC100 19/19 A3016 RMK AO2
Temperature: 19.0°C ( 66°F)
Dewpoint: 19.0°C ( 66°F) [RH = 100%]
Pressure (altimeter):30.16 inches Hg (1021.4 mb)
Winds:calm
Visibility:10 or more sm (16+ km)
Ceiling:10000 feet AGL
Clouds: overcast cloud deck at 10000 feet AGL
QC Flag:automated observation with no human augmentation